createdAt,value
2022-09-23T00:00:17.399Z,518.5
2022-09-23T00:01:19.552Z,518.7
2022-09-23T00:02:21.605Z,518.7
2022-09-23T00:03:23.267Z,518.9
2022-09-23T00:04:25.390Z,518.7
2022-09-23T00:05:27.058Z,518.6
2022-09-23T00:06:28.691Z,518.6
2022-09-23T00:07:30.399Z,518.8
2022-09-23T00:08:32.066Z,518.9
2022-09-23T00:09:33.757Z,518.8
2022-09-23T00:10:35.488Z,518.8
2022-09-23T00:11:37.022Z,518.9
2022-09-23T00:12:38.679Z,518.6
2022-09-23T00:13:40.395Z,518.6
2022-09-23T00:14:42.037Z,518.9
2022-09-23T00:15:43.721Z,519
2022-09-23T00:16:45.798Z,519.1
2022-09-23T00:17:47.638Z,519.2
2022-09-23T00:18:49.172Z,519.4
2022-09-23T00:19:51.027Z,519.8
2022-09-23T00:20:52.611Z,519.2
2022-09-23T00:21:54.149Z,519.5
2022-09-23T00:22:55.836Z,519.4
2022-09-23T00:23:57.596Z,519.3
2022-09-23T00:24:59.211Z,519.6
2022-09-23T00:26:00.826Z,519.2
2022-09-23T00:27:02.332Z,518.9
2022-09-23T00:28:03.871Z,519
2022-09-23T00:29:05.485Z,519.2
2022-09-23T00:30:07.060Z,518.9
2022-09-23T00:31:09.148Z,519
2022-09-23T00:32:10.778Z,519.1
2022-09-23T00:33:12.315Z,518.9
2022-09-23T00:34:14.034Z,518.9
2022-09-23T00:35:15.755Z,518.9
2022-09-23T00:36:17.510Z,519
2022-09-23T00:37:19.054Z,519
2022-09-23T00:38:20.616Z,519.6
2022-09-23T00:39:22.387Z,519.2
2022-09-23T00:40:24.393Z,519.5
2022-09-23T00:41:26.109Z,519.4
2022-09-23T00:42:27.907Z,519.6
2022-09-23T00:43:29.574Z,519.3
2022-09-23T00:44:31.156Z,519.6
2022-09-23T00:45:32.728Z,519.5
2022-09-23T00:46:34.805Z,519.2
2022-09-23T00:47:36.452Z,519.5
2022-09-23T00:48:37.984Z,519.5
2022-09-23T00:49:39.654Z,519.8
2022-09-23T00:50:41.490Z,519.6
2022-09-23T00:51:43.191Z,519.4
2022-09-23T00:52:44.910Z,519.5
2022-09-23T00:53:46.463Z,519.1
2022-09-23T00:54:48.117Z,519.3
2022-09-23T00:55:49.796Z,519.2
2022-09-23T00:56:51.339Z,519.3
2022-09-23T00:57:52.850Z,518.8
2022-09-23T00:58:54.546Z,519
2022-09-23T00:59:56.206Z,519.2
2022-09-23T01:00:58.280Z,519.1
2022-09-23T01:02:00.232Z,519.1
2022-09-23T01:03:02.050Z,518.9
2022-09-23T01:04:03.902Z,519.6
2022-09-23T01:05:05.588Z,519.6
2022-09-23T01:06:07.399Z,519.2
2022-09-23T01:07:09.004Z,519.8
2022-09-23T01:08:10.668Z,519.6
2022-09-23T01:09:12.349Z,519.5
2022-09-23T01:10:13.993Z,519.4
2022-09-23T01:11:15.617Z,519.3
2022-09-23T01:12:17.157Z,519.2
2022-09-23T01:13:18.806Z,519.3
2022-09-23T01:14:20.473Z,518.9
2022-09-23T01:15:22.034Z,519.2
2022-09-23T01:16:24.063Z,519
2022-09-23T01:17:25.727Z,518.9
2022-09-23T01:18:27.420Z,519
2022-09-23T01:19:28.980Z,519.3
2022-09-23T01:20:30.732Z,519.6
2022-09-23T01:21:32.564Z,518.9
2022-09-23T01:22:34.227Z,518.9
2022-09-23T01:23:35.773Z,519.1
2022-09-23T01:24:37.457Z,519.1
2022-09-23T01:25:39.025Z,519.4
2022-09-23T01:26:40.585Z,519.5
2022-09-23T01:27:42.257Z,519.4
2022-09-23T01:28:46.678Z,519.5
2022-09-23T01:29:48.333Z,519.4
2022-09-23T01:30:50.396Z,519.2
2022-09-23T01:31:52.108Z,518.9
2022-09-23T01:32:53.704Z,519
2022-09-23T01:33:55.421Z,518.9
2022-09-23T01:34:57.146Z,519.1
2022-09-23T01:35:58.810Z,518.8
2022-09-23T01:37:00.643Z,518.5
2022-09-23T01:38:02.399Z,518.6
2022-09-23T01:39:04.051Z,518.6
2022-09-23T01:40:06.099Z,518
2022-09-23T01:41:08.024Z,517.9
2022-09-23T01:42:09.641Z,518.7
2022-09-23T01:43:11.168Z,518.3
2022-09-23T01:44:12.710Z,518
2022-09-23T01:45:14.320Z,517.9
2022-09-23T01:46:16.078Z,518
2022-09-23T01:47:17.830Z,518.2
2022-09-23T01:48:19.882Z,517.9
2022-09-23T01:49:21.590Z,518.5
2022-09-23T01:50:23.195Z,518.3
2022-09-23T01:51:24.754Z,518.1
2022-09-23T01:52:26.759Z,517.9
2022-09-23T01:53:28.418Z,518.2
2022-09-23T01:54:30.022Z,518.5
2022-09-23T01:55:31.548Z,518.4
2022-09-23T01:56:33.095Z,518.7
2022-09-23T01:57:34.796Z,518.6
2022-09-23T01:58:36.303Z,518.6
2022-09-23T01:59:37.825Z,518.7
2022-09-23T02:00:39.455Z,518.6
2022-09-23T02:01:41.491Z,519.1
2022-09-23T02:02:43.751Z,518.9
2022-09-23T02:03:45.588Z,518.7
2022-09-23T02:04:47.232Z,518.7
2022-09-23T02:05:48.895Z,518.8
2022-09-23T02:06:50.499Z,518.9
2022-09-23T02:07:52.355Z,518.5
2022-09-23T02:08:53.957Z,518.9
2022-09-23T02:09:55.559Z,518.5
2022-09-23T02:10:57.283Z,518.6
2022-09-23T02:11:59.365Z,518.6
2022-09-23T02:13:01.005Z,518.7
2022-09-23T02:14:02.819Z,518.8
2022-09-23T02:15:04.567Z,518.9
2022-09-23T02:16:06.150Z,518.9
2022-09-23T02:17:07.693Z,518.9
2022-09-23T02:18:09.236Z,519
2022-09-23T02:19:10.990Z,518.8
2022-09-23T02:20:12.623Z,519.2
2022-09-23T02:21:14.258Z,518.9
2022-09-23T02:22:15.997Z,518.8
2022-09-23T02:23:17.860Z,518.9
2022-09-23T02:24:19.446Z,519
2022-09-23T02:25:21.102Z,519.5
2022-09-23T02:26:22.808Z,519.4
2022-09-23T02:27:24.453Z,519.2
2022-09-23T02:28:25.981Z,519.1
2022-09-23T02:29:27.687Z,519.3
2022-09-23T02:30:29.336Z,519.1
2022-09-23T02:31:31.326Z,519
2022-09-23T02:32:33.049Z,519.1
2022-09-23T02:33:34.688Z,519.2
2022-09-23T02:34:36.310Z,518.8
2022-09-23T02:35:38.028Z,518.7
2022-09-23T02:36:39.769Z,518.5
2022-09-23T02:37:41.409Z,519.2
2022-09-23T02:38:43.254Z,518.5
2022-09-23T02:39:44.855Z,518.5
2022-09-23T02:40:46.980Z,518.5
2022-09-23T02:41:48.715Z,518.5
2022-09-23T02:42:50.664Z,518.5
2022-09-23T02:43:52.256Z,518.5
2022-09-23T02:44:53.845Z,518.4
2022-09-23T02:45:55.831Z,518.4
2022-09-23T02:46:57.546Z,518.3
2022-09-23T02:47:59.212Z,518.2
2022-09-23T02:49:00.829Z,518.1
2022-09-23T02:50:02.662Z,517.8
2022-09-23T02:51:04.431Z,518
2022-09-23T02:52:05.955Z,518
2022-09-23T02:53:10.643Z,518.2
2022-09-23T02:54:12.430Z,517.7
2022-09-23T02:55:14.168Z,517.9
2022-09-23T02:56:15.846Z,517.5
2022-09-23T02:57:17.474Z,517.4
2022-09-23T02:58:19.130Z,517.3
2022-09-23T02:59:20.862Z,517.2
2022-09-23T03:00:22.400Z,516.9
2022-09-23T03:01:24.588Z,516.9
2022-09-23T03:02:26.641Z,517.1
2022-09-23T03:03:28.570Z,517.7
2022-09-23T03:04:30.106Z,517
2022-09-23T03:05:31.937Z,516.4
2022-09-23T03:06:33.582Z,516.7
2022-09-23T03:07:35.267Z,517.1
2022-09-23T03:08:37.077Z,517.4
2022-09-23T03:09:38.854Z,517.3
2022-09-23T03:10:40.471Z,517
2022-09-23T03:11:42.247Z,517.1
2022-09-23T03:12:44.100Z,517
2022-09-23T03:13:45.691Z,517
2022-09-23T03:14:47.339Z,517.4
2022-09-23T03:15:48.906Z,517.3
2022-09-23T03:16:50.931Z,517.6
2022-09-23T03:17:52.749Z,517.3
2022-09-23T03:18:54.293Z,517.3
2022-09-23T03:19:55.933Z,517.3
2022-09-23T03:20:57.571Z,517.1
2022-09-23T03:21:59.146Z,517.4
2022-09-23T03:23:00.802Z,517.7
2022-09-23T03:24:02.988Z,517.2
2022-09-23T03:25:04.759Z,517.6
2022-09-23T03:26:06.357Z,517.7
2022-09-23T03:27:07.924Z,517.6
2022-09-23T03:28:09.674Z,517.5
2022-09-23T03:29:11.239Z,517.5
2022-09-23T03:30:12.965Z,517.4
2022-09-23T03:31:15.122Z,517.3
2022-09-23T03:32:17.092Z,517.1
2022-09-23T03:33:18.749Z,517.6
2022-09-23T03:34:20.289Z,517.1
2022-09-23T03:35:22.038Z,517.6
2022-09-23T03:36:23.669Z,517.9
2022-09-23T03:37:25.296Z,517.6
2022-09-23T03:38:26.851Z,517.4
2022-09-23T03:39:28.395Z,517.8
2022-09-23T03:40:30.793Z,517.6
2022-09-23T03:41:32.469Z,517.5
2022-09-23T03:42:34.021Z,517.6
2022-09-23T03:43:39.479Z,517.2
2022-09-23T03:44:41.147Z,517.2
2022-09-23T03:45:43.195Z,517.1
2022-09-23T03:46:44.829Z,516.9
2022-09-23T03:47:49.121Z,517
2022-09-23T03:48:50.802Z,516.8
2022-09-23T03:49:52.341Z,516.9
2022-09-23T03:50:53.988Z,516.9
2022-09-23T03:51:55.599Z,516.8
2022-09-23T03:52:57.279Z,517.1
2022-09-23T03:53:59.273Z,517
2022-09-23T03:55:00.942Z,516.3
2022-09-23T03:56:02.829Z,515.9
2022-09-23T03:57:04.442Z,515.7
2022-09-23T03:58:05.995Z,515.8
2022-09-23T03:59:07.678Z,515.9
2022-09-23T04:00:09.224Z,516.4
2022-09-23T04:01:11.347Z,516.4
2022-09-23T04:02:13.463Z,516.1
2022-09-23T04:03:15.177Z,516.4
2022-09-23T04:04:16.715Z,516.2
2022-09-23T04:05:18.335Z,516.5
2022-09-23T04:06:19.909Z,516.2
2022-09-23T04:07:21.707Z,516.4
2022-09-23T04:08:23.391Z,516
2022-09-23T04:09:24.916Z,515.4
2022-09-23T04:10:26.548Z,515.4
2022-09-23T04:11:28.519Z,515.3
2022-09-23T04:12:30.129Z,515.3
2022-09-23T04:13:31.755Z,515.7
2022-09-23T04:14:33.470Z,515.4
2022-09-23T04:15:35.131Z,515
2022-09-23T04:16:37.224Z,515.1
2022-09-23T04:17:39.082Z,514.9
2022-09-23T04:18:40.612Z,515.3
2022-09-23T04:19:42.389Z,515.5
2022-09-23T04:20:44.052Z,515.3
2022-09-23T04:21:45.705Z,515.4
2022-09-23T04:22:47.311Z,515.3
2022-09-23T04:23:48.843Z,515.3
2022-09-23T04:24:50.387Z,515.4
2022-09-23T04:25:52.146Z,515.1
2022-09-23T04:26:54.019Z,514.5
2022-09-23T04:27:55.637Z,514.8
2022-09-23T04:28:57.180Z,514.7
2022-09-23T04:29:58.723Z,514.7
2022-09-23T04:31:00.404Z,514.7
2022-09-23T04:32:02.015Z,514.5
2022-09-23T04:33:03.660Z,514.8
2022-09-23T04:34:05.319Z,514.6
2022-09-23T04:35:06.891Z,514.4
2022-09-23T04:36:08.645Z,514.2
2022-09-23T04:37:10.199Z,514.1
2022-09-23T04:38:11.805Z,514.4
2022-09-23T04:39:13.464Z,514
2022-09-23T04:40:15.254Z,513.9
2022-09-23T04:41:16.924Z,513.9
2022-09-23T04:42:18.692Z,513.1
2022-09-23T04:43:20.457Z,513.3
2022-09-23T04:44:21.968Z,513.1
2022-09-23T04:45:23.577Z,512.9
2022-09-23T04:46:25.706Z,512.9
2022-09-23T04:47:27.346Z,512.9
2022-09-23T04:48:28.989Z,512.6
2022-09-23T04:49:30.651Z,512.3
2022-09-23T04:50:32.294Z,512.6
2022-09-23T04:51:33.885Z,512.6
2022-09-23T04:52:35.531Z,512.4
2022-09-23T04:53:37.278Z,512.3
2022-09-23T04:54:38.927Z,511.8
2022-09-23T04:55:40.446Z,512
2022-09-23T04:56:42.096Z,512.1
2022-09-23T04:57:43.991Z,511.8
2022-09-23T04:58:45.711Z,511.7
2022-09-23T04:59:47.258Z,512.1
2022-09-23T05:00:49.282Z,512.2
2022-09-23T05:01:51.366Z,512
2022-09-23T05:02:52.987Z,512.1
2022-09-23T05:03:54.590Z,512.1
2022-09-23T05:04:56.236Z,512.3
2022-09-23T05:05:57.841Z,512
2022-09-23T05:07:04.012Z,512
2022-09-23T05:08:05.575Z,512.1
2022-09-23T05:09:08.132Z,512.1
2022-09-23T05:10:09.828Z,511.8
2022-09-23T05:11:11.473Z,511.5
2022-09-23T05:12:13.142Z,511.8
2022-09-23T05:13:14.917Z,511.8
2022-09-23T05:14:16.576Z,511.8
2022-09-23T05:15:18.129Z,512
2022-09-23T05:16:20.229Z,511.8
2022-09-23T05:17:21.918Z,511.8
2022-09-23T05:18:23.565Z,511.5
2022-09-23T05:19:28.039Z,511.4
2022-09-23T05:20:29.669Z,511.8
2022-09-23T05:21:31.243Z,511.2
2022-09-23T05:22:32.856Z,511.5
2022-09-23T05:23:34.421Z,511.4
2022-09-23T05:24:36.101Z,511.2
2022-09-23T05:25:38.951Z,511.1
2022-09-23T05:26:40.649Z,511.1
2022-09-23T05:27:42.442Z,511.2
2022-09-23T05:28:44.304Z,511.2
2022-09-23T05:29:46.127Z,510.9
2022-09-23T05:30:47.822Z,511
2022-09-23T05:31:50.014Z,510.8
2022-09-23T05:32:51.904Z,510.5
2022-09-23T05:33:53.649Z,510.6
2022-09-23T05:34:55.165Z,510.6
2022-09-23T05:35:59.441Z,510.9
2022-09-23T05:37:00.992Z,510.6
2022-09-23T05:38:02.557Z,510.6
2022-09-23T05:39:04.310Z,510.9
2022-09-23T05:40:06.206Z,510.7
2022-09-23T05:41:07.844Z,510.4
2022-09-23T05:42:09.383Z,510.7
2022-09-23T05:43:11.012Z,511
2022-09-23T05:44:12.863Z,510.7
2022-09-23T05:45:14.531Z,511.1
2022-09-23T05:46:16.675Z,511.2
2022-09-23T05:47:18.501Z,511.2
2022-09-23T05:48:20.059Z,510.9
2022-09-23T05:50:00.830Z,511.1
2022-09-23T05:51:02.551Z,511.2
2022-09-23T05:52:04.081Z,511.4
2022-09-23T05:53:05.624Z,511.5
2022-09-23T05:54:08.082Z,511.4
2022-09-23T05:55:09.745Z,511.6
2022-09-23T05:56:11.406Z,511.5
2022-09-23T05:57:13.050Z,511.5
2022-09-23T05:58:14.618Z,511.3
2022-09-23T05:59:16.453Z,511.5
2022-09-23T06:00:18.113Z,511.7
2022-09-23T06:01:19.961Z,511.4
2022-09-23T06:02:21.982Z,511.6
2022-09-23T06:03:23.983Z,511.5
2022-09-23T06:04:25.714Z,511.5
2022-09-23T06:05:27.324Z,511.8
2022-09-23T06:06:28.914Z,512
2022-09-23T06:07:30.497Z,512.2
2022-09-23T06:08:32.157Z,512.3
2022-09-23T06:09:39.909Z,512.1
2022-09-23T06:10:41.458Z,512.2
2022-09-23T06:11:43.079Z,512.2
2022-09-23T06:12:44.848Z,512.1
2022-09-23T06:13:46.574Z,512.2
2022-09-23T06:14:48.378Z,512.3
2022-09-23T06:15:50.503Z,512.4
2022-09-23T06:16:52.167Z,512.4
2022-09-23T06:17:53.752Z,512.4
2022-09-23T06:18:55.369Z,512.5
2022-09-23T06:19:59.595Z,512.6
2022-09-23T06:21:01.267Z,512.4
2022-09-23T06:22:02.834Z,512.4
2022-09-23T06:23:10.972Z,512.4
2022-09-23T06:24:31.226Z,512.6
2022-09-23T06:25:33.174Z,512.5
2022-09-23T06:26:34.845Z,512.4
2022-09-23T06:27:36.431Z,512.7
2022-09-23T06:28:38.148Z,512.9
2022-09-23T06:29:39.894Z,512.7
2022-09-23T06:30:41.725Z,512.8
2022-09-23T06:31:44.156Z,512.7
2022-09-23T06:32:45.819Z,513.2
2022-09-23T06:33:47.354Z,513.3
2022-09-23T06:34:52.625Z,513.3
2022-09-23T06:36:00.518Z,513.5
2022-09-23T06:37:22.005Z,513.2
2022-09-23T06:38:23.767Z,513.3
2022-09-23T06:39:25.303Z,513.6
2022-09-23T06:40:27.504Z,513.3
2022-09-23T06:41:29.191Z,513.6
2022-09-23T06:42:30.894Z,513.4
2022-09-23T06:43:32.623Z,513.4
2022-09-23T06:44:34.353Z,513.1
2022-09-23T06:45:35.891Z,513.3
2022-09-23T06:46:38.273Z,513.3
2022-09-23T06:47:39.986Z,513.1
2022-09-23T06:48:46.889Z,512.7
2022-09-23T06:49:48.441Z,512.9
2022-09-23T06:50:50.042Z,512.7
2022-09-23T06:51:51.699Z,512.4
2022-09-23T06:52:53.230Z,512.6
2022-09-23T06:53:54.807Z,512.6
2022-09-23T06:54:56.435Z,512.2
2022-09-23T06:55:58.089Z,512
2022-09-23T06:56:59.770Z,512.1
2022-09-23T06:58:01.493Z,511.9
2022-09-23T06:59:03.224Z,512.3
2022-09-23T07:00:04.803Z,512
2022-09-23T07:01:06.615Z,512.1
2022-09-23T07:02:09.154Z,511.7
2022-09-23T07:03:10.815Z,511.7
2022-09-23T07:04:12.324Z,511.5
2022-09-23T07:05:14.113Z,511.6
2022-09-23T07:06:15.881Z,511.1
2022-09-23T07:07:17.539Z,511
2022-09-23T07:08:19.157Z,511.2
2022-09-23T07:09:20.700Z,510.8
2022-09-23T07:10:22.244Z,510.8
2022-09-23T07:11:23.927Z,510.7
2022-09-23T07:12:25.570Z,510.5
2022-09-23T07:13:27.090Z,510.5
2022-09-23T07:14:28.756Z,510.4
2022-09-23T07:15:30.267Z,510.1
2022-09-23T07:16:32.215Z,509.9
2022-09-23T07:17:34.158Z,510
2022-09-23T07:18:38.060Z,510
2022-09-23T07:19:39.593Z,509.9
2022-09-23T07:20:41.255Z,509.7
2022-09-23T07:21:42.935Z,509.9
2022-09-23T07:22:44.468Z,509.7
2022-09-23T07:23:46.188Z,510
2022-09-23T07:24:47.811Z,510.2
2022-09-23T07:25:49.364Z,510.1
2022-09-23T07:26:51.055Z,510.2
2022-09-23T07:27:52.663Z,510.2
2022-09-23T07:28:54.423Z,509.7
2022-09-23T07:29:55.991Z,509.8
2022-09-23T07:31:01.832Z,510.1
2022-09-23T07:32:15.087Z,509.8
2022-09-23T07:33:33.953Z,509.5
2022-09-23T07:34:35.831Z,509.7
2022-09-23T07:35:37.347Z,508.7
2022-09-23T07:36:38.899Z,508.8
2022-09-23T07:37:40.480Z,509.1
2022-09-23T07:38:46.323Z,508.9
2022-09-23T07:39:47.971Z,508.7
2022-09-23T07:40:50.007Z,509.1
2022-09-23T07:41:51.613Z,508.9
2022-09-23T07:42:53.206Z,509.2
2022-09-23T07:43:54.752Z,509
2022-09-23T07:44:56.409Z,508.7
2022-09-23T07:45:58.338Z,509.3
2022-09-23T07:46:59.939Z,509.2
2022-09-23T07:48:01.482Z,508.9
2022-09-23T07:49:03.379Z,509.3
2022-09-23T07:50:05.101Z,509.5
2022-09-23T07:51:06.791Z,509
2022-09-23T07:52:08.443Z,509.2
2022-09-23T07:53:10.256Z,509.1
2022-09-23T07:54:11.905Z,509.1
2022-09-23T07:55:21.420Z,509.2
2022-09-23T07:56:23.140Z,509.3
2022-09-23T07:57:24.705Z,509.5
2022-09-23T07:58:26.388Z,509.6
2022-09-23T07:59:28.017Z,509.4
2022-09-23T08:00:29.704Z,509.5
2022-09-23T08:01:31.830Z,509.5
2022-09-23T08:02:34.001Z,509.3
2022-09-23T08:03:35.805Z,509.2
2022-09-23T08:04:37.691Z,509.4
2022-09-23T08:05:39.417Z,509.1
2022-09-23T08:06:41.066Z,508.8
2022-09-23T08:07:42.740Z,509
2022-09-23T08:08:44.442Z,508.9
2022-09-23T08:09:46.089Z,508.9
2022-09-23T08:10:47.663Z,509.1
2022-09-23T08:11:49.317Z,508.9
2022-09-23T08:12:50.829Z,508.9
2022-09-23T08:13:52.379Z,508.9
2022-09-23T08:14:54.006Z,508.8
2022-09-23T08:15:56.407Z,509.3
2022-09-23T08:16:58.156Z,509.7
2022-09-23T08:17:59.833Z,509.7
2022-09-23T08:19:02.309Z,509.6
2022-09-23T08:20:04.424Z,509.8
2022-09-23T08:21:06.218Z,509.8
2022-09-23T08:22:07.811Z,509.7
2022-09-23T08:23:09.421Z,509.8
2022-09-23T08:24:10.963Z,509.8
2022-09-23T08:25:12.719Z,510
2022-09-23T08:27:22.022Z,510
2022-09-23T08:28:23.561Z,510.1
2022-09-23T08:29:25.137Z,510.2
2022-09-23T08:30:26.686Z,510.3
2022-09-23T08:31:28.699Z,510.6
2022-09-23T08:32:30.293Z,510.6
2022-09-23T08:33:32.052Z,510.7
2022-09-23T08:34:33.714Z,510.6
2022-09-23T08:35:35.434Z,510.7
2022-09-23T08:36:37.244Z,510.6
2022-09-23T08:37:38.790Z,510.8
2022-09-23T08:38:40.538Z,510.4
2022-09-23T08:39:42.124Z,510.7
2022-09-23T08:40:44.009Z,510.5
2022-09-23T08:41:45.615Z,510.8
2022-09-23T08:42:47.152Z,510.7
2022-09-23T08:43:48.862Z,510.4
2022-09-23T08:44:50.507Z,510.5
2022-09-23T08:45:52.255Z,510.3
2022-09-23T08:46:53.860Z,510.8
2022-09-23T08:47:55.434Z,510.6
2022-09-23T08:48:57.050Z,510.6
2022-09-23T08:49:58.596Z,510.6
2022-09-23T08:51:00.569Z,510.5
2022-09-23T08:52:02.167Z,510.6
2022-09-23T08:53:03.732Z,510.8
2022-09-23T08:54:05.801Z,510.6
2022-09-23T08:55:07.580Z,510.7
2022-09-23T08:56:09.137Z,511.1
2022-09-23T08:57:10.753Z,511
2022-09-23T08:58:27.363Z,510.9
2022-09-23T08:59:29.064Z,510.9
2022-09-23T09:00:30.708Z,510.8
2022-09-23T09:01:32.622Z,511
2022-09-23T09:02:34.643Z,511
2022-09-23T09:03:36.287Z,511.2
2022-09-23T09:04:37.838Z,511
2022-09-23T09:05:39.385Z,511.5
2022-09-23T09:07:18.278Z,511.9
2022-09-23T09:08:33.663Z,511.6
2022-09-23T09:09:35.260Z,511.2
2022-09-23T09:10:36.804Z,511.6
2022-09-23T09:11:38.344Z,511.4
2022-09-23T09:12:39.883Z,511.2
2022-09-23T09:13:41.422Z,511.6
2022-09-23T09:14:43.008Z,511.8
2022-09-23T09:15:44.873Z,511.3
2022-09-23T09:17:02.080Z,511.3
2022-09-23T09:18:03.792Z,510.9
2022-09-23T09:19:05.498Z,510.6
2022-09-23T09:20:07.169Z,510.3
2022-09-23T09:21:08.870Z,510.4
2022-09-23T09:22:10.657Z,510.8
2022-09-23T09:23:12.260Z,510.5
2022-09-23T09:24:13.917Z,510.7
2022-09-23T09:25:15.612Z,510.7
2022-09-23T09:26:17.317Z,511
2022-09-23T09:27:18.888Z,511.4
2022-09-23T09:28:20.443Z,511.1
2022-09-23T09:29:37.354Z,511.1
2022-09-23T09:30:39.449Z,511.1
2022-09-23T09:31:41.247Z,511.1
2022-09-23T09:32:42.806Z,511.1
2022-09-23T09:33:47.174Z,510.9
2022-09-23T09:34:48.721Z,511.1
2022-09-23T09:35:50.266Z,511.2
2022-09-23T09:36:51.984Z,511.4
2022-09-23T09:37:54.434Z,511.4
2022-09-23T09:38:56.081Z,511.1
2022-09-23T09:39:57.643Z,511.5
2022-09-23T09:40:59.190Z,511.5
2022-09-23T09:42:00.846Z,511.7
2022-09-23T09:43:02.458Z,511.4
2022-09-23T09:44:04.149Z,511.2
2022-09-23T09:45:05.717Z,511.2
2022-09-23T09:46:07.330Z,511.1
2022-09-23T09:47:08.871Z,511
2022-09-23T09:48:10.410Z,510.7
2022-09-23T09:49:11.977Z,511.2
2022-09-23T09:50:13.611Z,511.3
2022-09-23T09:51:15.222Z,511.6
2022-09-23T09:52:16.806Z,511.7
2022-09-23T09:53:18.491Z,511.4
2022-09-23T09:54:20.133Z,511.8
2022-09-23T09:55:21.673Z,511.8
2022-09-23T09:56:23.286Z,512.1
2022-09-23T09:57:24.860Z,511.6
2022-09-23T09:58:26.480Z,511.9
2022-09-23T09:59:28.047Z,512
2022-09-23T10:00:29.587Z,511.1
2022-09-23T10:01:31.531Z,511.3
2022-09-23T10:02:33.333Z,511.3
2022-09-23T10:03:34.904Z,511.4
2022-09-23T10:04:36.782Z,511.1
2022-09-23T10:05:38.439Z,511.6
2022-09-23T10:06:40.045Z,511.6
2022-09-23T10:07:41.890Z,511.8
2022-09-23T10:08:43.726Z,512
2022-09-23T10:09:45.272Z,511.6
2022-09-23T10:10:46.855Z,512.3
2022-09-23T10:11:48.385Z,512
2022-09-23T10:12:50.013Z,512.2
2022-09-23T10:13:51.591Z,512.3
2022-09-23T10:14:53.143Z,512.5
2022-09-23T10:15:55.025Z,512.1
2022-09-23T10:16:57.012Z,512.8
2022-09-23T10:17:58.933Z,513
2022-09-23T10:19:00.944Z,512.8
2022-09-23T10:20:02.499Z,513
2022-09-23T10:21:04.132Z,513.3
2022-09-23T10:22:05.747Z,513
2022-09-23T10:23:07.372Z,513.6
2022-09-23T10:24:09.067Z,512.8
2022-09-23T10:25:10.624Z,513.1
2022-09-23T10:26:12.198Z,513.1
2022-09-23T10:27:13.776Z,513.3
2022-09-23T10:28:15.388Z,513.8
2022-09-23T10:29:16.952Z,513.7
2022-09-23T10:30:18.499Z,513.9
2022-09-23T10:31:20.038Z,514.2
2022-09-23T10:32:21.628Z,514.1
2022-09-23T10:33:23.253Z,514
2022-09-23T10:34:24.797Z,514
2022-09-23T10:35:26.407Z,513.8
2022-09-23T10:36:28.158Z,514
2022-09-23T10:37:29.710Z,514.1
2022-09-23T10:38:31.287Z,514.4
2022-09-23T10:39:32.994Z,514.5
2022-09-23T10:40:34.951Z,514.3
2022-09-23T10:41:36.526Z,514.4
2022-09-23T10:42:38.161Z,514.2
2022-09-23T10:43:39.713Z,514.6
2022-09-23T10:44:41.332Z,514.9
2022-09-23T10:45:44.192Z,515.3
2022-09-23T10:46:45.856Z,514.8
2022-09-23T10:47:47.399Z,514.9
2022-09-23T10:48:48.986Z,514.6
2022-09-23T10:49:50.540Z,514.4
2022-09-23T10:50:52.141Z,514.3
2022-09-23T10:51:53.703Z,514.4
2022-09-23T10:52:55.241Z,514.6
2022-09-23T10:53:56.884Z,514.7
2022-09-23T10:54:58.744Z,514.9
2022-09-23T10:56:00.312Z,514.9
2022-09-23T10:57:02.267Z,515.8
2022-09-23T10:58:03.898Z,515.9
2022-09-23T10:59:05.500Z,515.8
2022-09-23T11:00:07.140Z,515.9
2022-09-23T11:01:09.089Z,515.7
2022-09-23T11:02:10.681Z,515.6
2022-09-23T11:03:12.254Z,515.4
2022-09-23T11:04:15.267Z,515.8
2022-09-23T11:05:17.028Z,516.4
2022-09-23T11:06:18.885Z,516.2
2022-09-23T11:07:20.541Z,515.9
2022-09-23T11:08:22.067Z,516.5
2022-09-23T11:09:23.846Z,516.5
2022-09-23T11:10:47.468Z,516.7
2022-09-23T11:11:49.133Z,516.9
2022-09-23T11:12:50.801Z,517.5
2022-09-23T11:13:55.388Z,517.6
2022-09-23T11:14:57.067Z,517.1
2022-09-23T11:15:58.686Z,516.9
2022-09-23T11:17:00.715Z,517.6
2022-09-23T11:18:02.412Z,517.6
2022-09-23T11:19:06.895Z,518.1
2022-09-23T11:20:08.527Z,518.2
2022-09-23T11:21:10.159Z,517.8
2022-09-23T11:22:11.950Z,517.8
2022-09-23T11:23:13.638Z,517.8
2022-09-23T11:24:15.345Z,517.7
2022-09-23T11:25:17.135Z,517.6
2022-09-23T11:26:19.099Z,517.6
2022-09-23T11:27:20.772Z,517.6
2022-09-23T11:28:22.344Z,518.1
2022-09-23T11:29:23.881Z,518.1
2022-09-23T11:30:25.723Z,517.8
2022-09-23T11:31:27.385Z,517.9
2022-09-23T11:32:29.003Z,517.8
2022-09-23T11:33:30.847Z,517.7
2022-09-23T11:34:32.382Z,518.5
2022-09-23T11:35:33.881Z,518.5
2022-09-23T11:36:35.780Z,518.5
2022-09-23T11:37:37.347Z,518.9
2022-09-23T11:38:38.901Z,519
2022-09-23T11:39:40.619Z,519.1
2022-09-23T11:40:47.314Z,519.1
2022-09-23T11:41:49.259Z,519.4
2022-09-23T11:42:50.901Z,519.7
2022-09-23T11:43:53.089Z,519.8
2022-09-23T11:44:54.629Z,520
2022-09-23T11:45:56.636Z,519.8
2022-09-23T11:46:58.279Z,519.6
2022-09-23T11:47:59.870Z,520.1
2022-09-23T11:49:01.602Z,520.2
2022-09-23T11:50:03.144Z,519.9
2022-09-23T11:51:04.794Z,520.1
2022-09-23T11:52:06.481Z,520.3
2022-09-23T11:53:08.067Z,519.8
2022-09-23T11:54:09.816Z,519.9
2022-09-23T11:55:23.584Z,520.5
2022-09-23T11:56:41.193Z,520.4
2022-09-23T11:57:50.194Z,520.4
2022-09-23T11:59:00.340Z,520.4
2022-09-23T12:00:02.068Z,520.4
2022-09-23T12:01:03.695Z,520
2022-09-23T12:02:28.302Z,519.9
2022-09-23T12:03:45.774Z,519.5
2022-09-23T12:04:59.386Z,519.7
2022-09-23T12:06:01.818Z,519.6
2022-09-23T12:07:03.417Z,519.8
2022-09-23T12:08:05.225Z,519.7
2022-09-23T12:09:06.771Z,520
2022-09-23T12:10:08.318Z,520.5
2022-09-23T12:11:09.883Z,520.3
2022-09-23T12:12:11.503Z,519.9
2022-09-23T12:13:13.492Z,520.6
2022-09-23T12:14:15.057Z,520.7
2022-09-23T12:15:16.740Z,520.8
2022-09-23T12:16:18.681Z,521.1
2022-09-23T12:17:20.351Z,520.6
2022-09-23T12:18:23.838Z,520.7
2022-09-23T12:19:25.398Z,521.2
2022-09-23T12:20:27.006Z,520.8
2022-09-23T12:21:51.910Z,521.1
2022-09-23T12:22:53.554Z,520.7
2022-09-23T12:23:55.097Z,520.6
2022-09-23T12:24:56.650Z,521.1
2022-09-23T12:25:58.285Z,521
2022-09-23T12:26:59.814Z,521.3
2022-09-23T12:28:01.437Z,520.8
2022-09-23T12:29:03.214Z,520.6
2022-09-23T12:30:04.806Z,520.7
2022-09-23T12:31:07.152Z,520.3
2022-09-23T12:32:08.710Z,520.6
2022-09-23T12:33:10.313Z,520.3
2022-09-23T12:34:12.125Z,520.3
2022-09-23T12:35:13.817Z,519.9
2022-09-23T12:36:15.399Z,520.3
2022-09-23T12:37:16.958Z,520.3
2022-09-23T12:38:18.610Z,520.5
2022-09-23T12:39:20.164Z,520.7
2022-09-23T12:40:22.256Z,520.5
2022-09-23T12:41:23.925Z,520.7
2022-09-23T12:42:31.919Z,520.3
2022-09-23T12:43:33.575Z,520.2
2022-09-23T12:44:35.471Z,520.6
2022-09-23T12:45:37.742Z,520.6
2022-09-23T12:46:39.553Z,520.5
2022-09-23T12:47:41.196Z,520.4
2022-09-23T12:48:42.868Z,520.4
2022-09-23T12:49:44.414Z,520.3
2022-09-23T12:50:46.068Z,520
2022-09-23T12:51:47.723Z,520.5
2022-09-23T12:52:49.364Z,520.3
2022-09-23T12:53:50.968Z,520.3
2022-09-23T12:54:52.973Z,520.4
2022-09-23T12:55:54.773Z,520.8
2022-09-23T12:56:56.543Z,520.6
2022-09-23T12:57:58.163Z,520.5
2022-09-23T12:58:59.956Z,520.7
2022-09-23T13:00:01.793Z,520.1
2022-09-23T13:01:03.962Z,520.1
2022-09-23T13:02:06.133Z,520.2
2022-09-23T13:03:07.801Z,520
2022-09-23T13:04:09.475Z,520.2
2022-09-23T13:05:11.234Z,520.2
2022-09-23T13:06:12.894Z,520.3
2022-09-23T13:07:14.546Z,520.1
2022-09-23T13:08:16.231Z,520.3
2022-09-23T13:09:17.912Z,520.2
2022-09-23T13:10:19.772Z,520.4
2022-09-23T13:11:21.606Z,520.3
2022-09-23T13:12:23.243Z,520.4
2022-09-23T13:13:24.911Z,520.4
2022-09-23T13:14:28.275Z,520.6
2022-09-23T13:15:33.025Z,520.8
2022-09-23T13:16:35.105Z,520.3
2022-09-23T13:17:36.777Z,520.1
2022-09-23T13:18:38.557Z,520.2
2022-09-23T13:19:40.340Z,520.6
2022-09-23T13:20:42.057Z,520.2
2022-09-23T13:21:43.786Z,520.5
2022-09-23T13:22:45.471Z,520.2
2022-09-23T13:23:47.124Z,520.3
2022-09-23T13:24:48.766Z,520.2
2022-09-23T13:25:50.572Z,520.4
2022-09-23T13:26:52.121Z,520.2
2022-09-23T13:27:53.813Z,520.5